Time;durP1;ratioP1;P1;durP2;ratioP2;P2;SDS_P1;SDS_P2;PMS_P1;PMS_P2;Temp;Humidity;BMP_temperature;BMP_pressure;BME280_temperature;BME280_humidity;BME280_pressure;Samples;Min_cycle;Max_cycle;Signal;HPM_P1;HPM_P2
2022/11/22 00:02:11;;;;;;;21.65;15.95;;;;;;;-2.90;100.00;99945.94;5012412;28;20183;-48
2022/11/22 00:04:36;;;;;;;25.95;17.52;;;;;;;-2.85;100.00;99932.84;5011830;28;20299;-47
2022/11/22 00:07:01;;;;;;;25.60;17.45;;;;;;;-2.83;100.00;99931.09;5009819;28;20247;-47
2022/11/22 00:09:27;;;;;;;26.13;17.65;;;;;;;-2.85;100.00;99920.59;5011659;28;20272;-46
2022/11/22 00:11:52;;;;;;;23.80;17.23;;;;;;;-2.81;100.00;99929.38;5012514;28;20665;-49
2022/11/22 00:14:18;;;;;;;27.60;18.92;;;;;;;-2.76;100.00;99925.00;5012627;28;20212;-45
2022/11/22 00:16:44;;;;;;;27.48;18.05;;;;;;;-2.71;100.00;99913.66;5011945;28;20208;-46
2022/11/22 00:19:10;;;;;;;28.33;19.10;;;;;;;-2.73;100.00;99920.63;5011983;28;20180;-46
2022/11/22 00:21:35;;;;;;;25.70;18.75;;;;;;;-2.74;100.00;99920.63;5013580;28;20185;-47
2022/11/22 00:24:01;;;;;;;25.15;18.05;;;;;;;-2.72;100.00;99922.38;5013307;28;20207;-47
2022/11/22 00:26:26;;;;;;;26.75;18.02;;;;;;;-2.74;100.00;99915.38;5013219;28;20205;-47
2022/11/22 00:28:52;;;;;;;24.67;17.95;;;;;;;-2.77;100.00;99894.41;5012305;28;20230;-47
2022/11/22 00:31:18;;;;;;;30.27;19.58;;;;;;;-2.74;100.00;99902.28;4991964;28;20208;-47
2022/11/22 00:33:43;;;;;;;25.83;18.52;;;;;;;-2.77;100.00;99910.16;5012034;28;20195;-47
2022/11/22 00:36:09;;;;;;;25.67;18.65;;;;;;;-2.76;100.00;99911.88;5011761;28;20172;-47
2022/11/22 00:38:34;;;;;;;26.58;18.58;;;;;;;-2.76;100.00;99904.00;5011930;28;20188;-46
2022/11/22 00:41:00;;;;;;;26.85;19.73;;;;;;;-2.70;100.00;99898.78;5013029;28;20193;-46
2022/11/22 00:43:26;;;;;;;30.60;20.38;;;;;;;-2.72;100.00;99896.16;5012008;28;20231;-47
2022/11/22 00:45:51;;;;;;;27.73;19.73;;;;;;;-2.71;100.00;99878.69;5012184;28;20208;-48
2022/11/22 00:48:17;;;;;;;27.95;19.83;;;;;;;-2.70;100.00;99876.06;5011764;28;20211;-48
2022/11/22 00:50:42;;;;;;;28.10;19.92;;;;;;;-2.71;100.00;99891.81;5012059;28;20509;-47
2022/11/22 00:53:08;;;;;;;27.40;19.77;;;;;;;-2.69;100.00;99887.41;5011948;28;20215;-47
2022/11/22 00:55:33;;;;;;;28.88;19.58;;;;;;;-2.68;100.00;99878.69;5011683;28;20180;-46
2022/11/22 00:57:59;;;;;;;27.33;19.85;;;;;;;-2.63;100.00;99889.16;5012558;28;20204;-46
2022/11/22 01:00:25;;;;;;;27.63;18.45;;;;;;;-2.63;100.00;99884.78;5012356;28;20224;-46
2022/11/22 01:02:50;;;;;;;30.35;19.90;;;;;;;-2.62;100.00;99881.31;5012281;28;20197;-46
2022/11/22 01:05:16;;;;;;;29.48;19.50;;;;;;;-2.60;100.00;99897.03;5011983;28;20263;-46
2022/11/22 01:07:43;;;;;;;23.25;17.70;;;;;;;-2.58;100.00;99888.31;5011698;28;20206;-48
2022/11/22 01:10:09;;;;;;;25.60;19.10;;;;;;;-2.55;100.00;99879.56;5010786;28;20249;-49
2022/11/22 01:12:35;;;;;;;27.63;19.42;;;;;;;-2.57;100.00;99879.56;5009213;28;20609;-47
2022/11/22 01:15:01;;;;;;;27.23;19.52;;;;;;;-2.57;100.00;99884.78;5011538;28;20219;-48
2022/11/22 01:17:27;;;;;;;27.20;19.73;;;;;;;-2.57;100.00;99883.94;5011669;28;20204;-48
2022/11/22 01:19:52;;;;;;;26.50;18.42;;;;;;;-2.59;100.00;99862.94;5011807;28;20181;-49
2022/11/22 01:22:18;;;;;;;26.02;18.30;;;;;;;-2.55;100.00;99869.94;5011824;28;20593;-49
2022/11/22 01:24:43;;;;;;;29.17;19.17;;;;;;;-2.55;100.00;99869.06;5011221;28;20301;-50
2022/11/22 01:27:09;;;;;;;26.13;18.85;;;;;;;-2.55;100.00;99858.59;5010546;28;20248;-48
2022/11/22 01:29:34;;;;;;;25.67;18.58;;;;;;;-2.59;100.00;99857.69;5009794;28;20543;-48
2022/11/22 01:31:59;;;;;;;27.13;19.65;;;;;;;-2.60;100.00;99855.97;5011272;28;20613;-49
2022/11/22 01:34:25;;;;;;;28.60;19.55;;;;;;;-2.59;100.00;99856.84;4993975;28;20278;-50
2022/11/22 01:36:50;;;;;;;29.15;19.85;;;;;;;-2.61;100.00;99851.59;5011321;28;20200;-49
2022/11/22 01:39:16;;;;;;;26.00;18.05;;;;;;;-2.60;100.00;99855.97;5011243;28;20253;-50
2022/11/22 01:41:42;;;;;;;23.13;17.20;;;;;;;-2.58;100.00;99855.94;5011111;28;20303;-49
2022/11/22 01:44:22;;;;;;;25.25;17.77;;;;;;;-2.59;100.00;99857.69;4990689;28;20181;-50
2022/11/22 01:46:55;;;;;;;26.42;19.20;;;;;;;-2.56;100.00;99855.09;4984626;28;20216;-49
2022/11/22 01:49:32;;;;;;;26.90;18.48;;;;;;;-2.61;100.00;99851.59;5010872;28;20173;-50
2022/11/22 01:52:13;;;;;;;27.25;17.63;;;;;;;-2.54;100.00;99844.59;5010125;28;20263;-48
2022/11/22 01:54:41;;;;;;;29.15;18.58;;;;;;;-2.52;100.00;99837.59;5010585;28;20176;-50
2022/11/22 01:57:11;;;;;;;22.67;16.10;;;;;;;-2.50;100.00;99825.34;5009965;28;20205;-49
2022/11/22 01:59:41;;;;;;;26.33;16.98;;;;;;;-2.44;100.00;99837.59;5010602;28;20211;-51
2022/11/22 02:02:06;;;;;;;25.10;18.10;;;;;;;-2.45;100.00;99841.06;5010226;28;20207;-48
2022/11/22 02:04:34;;;;;;;25.98;17.67;;;;;;;-2.42;100.00;99839.34;4992781;28;20239;-48
2022/11/22 02:07:11;;;;;;;22.65;17.65;;;;;;;-2.38;100.00;99848.09;5009982;28;20307;-49
2022/11/22 02:09:39;;;;;;;25.42;18.38;;;;;;;-2.33;100.00;99848.94;5007085;28;20185;-48
2022/11/22 02:12:07;;;;;;;25.58;18.40;;;;;;;-2.32;100.00;99840.19;5010270;28;20599;-48
2022/11/22 02:14:33;;;;;;;25.30;17.48;;;;;;;-2.31;100.00;99834.94;5008183;28;20259;-48
2022/11/22 02:16:59;;;;;;;29.35;19.40;;;;;;;-2.25;100.00;99838.41;5009800;28;20197;-49
2022/11/22 02:20:00;;;;;;;25.30;19.00;;;;;;;-2.26;100.00;99823.56;5010553;28;20224;-48
2022/11/22 02:22:44;;;;;;;28.15;18.60;;;;;;;-2.25;100.00;99823.56;4939716;29;20194;-44
2022/11/22 02:25:25;;;;;;;25.42;18.35;;;;;;;-2.23;100.00;99832.31;5002327;28;20196;-44
2022/11/22 02:27:51;;;;;;;28.65;19.63;;;;;;;-2.19;100.00;99812.16;5002449;28;20212;-45
2022/11/22 02:30:17;;;;;;;26.05;17.80;;;;;;;-2.20;100.00;99813.06;5010518;28;20268;-44
2022/11/22 02:32:43;;;;;;;25.58;18.25;;;;;;;-2.20;100.00;99819.16;5010609;28;20551;-43
2022/11/22 02:35:28;;;;;;;27.45;19.52;;;;;;;-2.18;100.00;99814.78;5010501;28;20263;-46
2022/11/22 02:38:04;;;;;;;28.15;19.70;;;;;;;-2.18;100.00;99827.91;5010276;28;20283;-48
2022/11/22 02:40:42;;;;;;;28.40;19.05;;;;;;;-2.14;100.00;99820.91;5009961;28;20259;-47
2022/11/22 02:43:12;;;;;;;25.25;18.60;;;;;;;-2.11;100.00;99821.75;5009508;28;20196;-47
2022/11/22 02:45:37;;;;;;;26.02;18.83;;;;;;;-2.13;100.00;99809.53;5010012;28;20281;-48
2022/11/22 02:48:11;;;;;;;29.25;20.63;;;;;;;-2.13;100.00;99799.03;5007346;28;20669;-45
2022/11/22 02:50:37;;;;;;;28.48;19.83;;;;;;;-2.09;100.00;99812.13;5010185;28;20176;-45
2022/11/22 02:53:03;;;;;;;26.55;18.25;;;;;;;-2.08;100.00;99811.28;5009341;28;20283;-45
2022/11/22 02:55:29;;;;;;;25.50;18.70;;;;;;;-2.07;100.00;99796.41;5010224;28;20187;-44
2022/11/22 02:57:55;;;;;;;27.80;19.05;;;;;;;-2.03;100.00;99792.88;5010073;28;20200;-46
2022/11/22 03:00:20;;;;;;;25.75;18.98;;;;;;;-2.02;100.00;99792.00;5010314;28;20247;-45
2022/11/22 03:02:46;;;;;;;27.65;19.35;;;;;;;-2.00;100.00;99789.38;5013005;28;20199;-49
2022/11/22 03:05:11;;;;;;;28.10;19.50;;;;;;;-1.98;100.00;99785.00;5014099;28;20246;-46
2022/11/22 03:07:37;;;;;;;26.17;18.55;;;;;;;-1.95;100.00;99791.06;4992812;28;20211;-46
2022/11/22 03:10:03;;;;;;;26.40;19.15;;;;;;;-1.91;100.00;99781.44;5011451;28;20664;-47
2022/11/22 03:12:28;;;;;;;27.65;18.77;;;;;;;-1.89;100.00;99774.44;5013623;28;20176;-47
2022/11/22 03:14:54;;;;;;;27.67;18.33;;;;;;;-1.90;100.00;99776.19;5014037;28;20181;-45
2022/11/22 03:17:19;;;;;;;25.70;17.85;;;;;;;-1.88;100.00;99763.94;5013699;28;20619;-43
2022/11/22 03:19:45;;;;;;;29.30;19.13;;;;;;;-1.86;100.00;99766.53;5014212;28;20271;-46
2022/11/22 03:22:10;;;;;;;23.70;17.55;;;;;;;-1.87;100.00;99773.53;5013896;28;20189;-45
2022/11/22 03:24:36;;;;;;;23.38;18.33;;;;;;;-1.84;100.00;99763.91;5014072;28;20189;-44
2022/11/22 03:27:01;;;;;;;27.33;18.52;;;;;;;-1.82;100.00;99767.41;5013834;28;20210;-46
2022/11/22 03:29:27;;;;;;;22.42;17.25;;;;;;;-1.79;100.00;99768.28;5013153;28;20658;-48
2022/11/22 03:31:54;;;;;;;24.85;17.90;;;;;;;-1.75;100.00;99767.38;5013016;28;20177;-47
2022/11/22 03:34:20;;;;;;;25.48;18.00;;;;;;;-1.75;100.00;99770.00;5013273;28;20172;-49
2022/11/22 03:36:45;;;;;;;26.70;18.83;;;;;;;-1.74;100.00;99778.75;5012742;28;20201;-45
2022/11/22 03:39:11;;;;;;;27.77;19.27;;;;;;;-1.70;100.00;99755.09;5013289;28;20224;-48
2022/11/22 03:41:36;;;;;;;25.17;18.08;;;;;;;-1.73;100.00;99757.75;5013041;28;20176;-47
2022/11/22 03:44:02;;;;;;;24.38;17.73;;;;;;;-1.74;100.00;99755.97;5013122;28;20642;-47
2022/11/22 03:46:28;;;;;;;26.65;18.55;;;;;;;-1.70;100.00;99759.47;5012479;28;20232;-47
2022/11/22 03:48:54;;;;;;;29.08;18.40;;;;;;;-1.70;100.00;99759.47;4995064;28;20407;-47
2022/11/22 03:51:19;;;;;;;24.20;18.65;;;;;;;-1.71;100.00;99750.69;5010582;28;20223;-47
2022/11/22 03:53:45;;;;;;;23.40;16.77;;;;;;;-1.69;100.00;99750.69;5012475;28;20185;-48
2022/11/22 03:56:10;;;;;;;23.70;18.63;;;;;;;-1.68;100.00;99744.59;5012511;28;20185;-48
2022/11/22 03:58:36;;;;;;;23.77;18.67;;;;;;;-1.71;100.00;99749.84;5012718;28;20179;-48
2022/11/22 04:01:01;;;;;;;28.45;19.42;;;;;;;-1.74;100.00;99734.13;4995143;28;20531;-46
2022/11/22 04:03:27;;;;;;;25.00;18.17;;;;;;;-1.74;100.00;99729.72;5012572;28;20192;-44
2022/11/22 04:05:53;;;;;;;25.40;18.40;;;;;;;-1.74;100.00;99727.09;5011508;28;20376;-46
2022/11/22 04:08:19;;;;;;;25.20;18.38;;;;;;;-1.74;100.00;99742.00;5011190;28;20579;-45
2022/11/22 04:10:44;;;;;;;27.38;19.17;;;;;;;-1.74;100.00;99732.34;5011993;28;20592;-44
2022/11/22 04:13:10;;;;;;;26.52;18.50;;;;;;;-1.72;100.00;99737.59;5011421;28;20709;-42
2022/11/22 04:15:35;;;;;;;25.88;19.20;;;;;;;-1.75;100.00;99741.13;5012201;28;20197;-41
2022/11/22 04:18:01;;;;;;;24.17;17.55;;;;;;;-1.76;100.00;99728.00;5012528;28;20205;-41
2022/11/22 04:23:15;;;;;;;24.77;18.10;;;;;;;-1.77;100.00;99735.00;5012731;28;20283;-43
2022/11/22 04:25:43;;;;;;;24.35;17.65;;;;;;;-1.72;100.00;99716.59;5012321;28;20235;-43
2022/11/22 04:28:10;;;;;;;25.20;18.33;;;;;;;-1.75;100.00;99729.72;5012651;28;20250;-44
2022/11/22 04:33:21;;;;;;;24.73;18.33;;;;;;;-1.76;100.00;99736.75;5012498;28;20183;-43
2022/11/22 04:35:48;;;;;;;23.80;18.40;;;;;;;-1.73;100.00;99742.00;5012059;28;20187;-42
2022/11/22 04:38:15;;;;;;;24.90;18.27;;;;;;;-1.74;100.00;99727.09;5011857;28;20681;-45
2022/11/22 04:40:40;;;;;;;24.23;18.30;;;;;;;-1.71;100.00;99734.94;5012808;28;20184;-42
2022/11/22 04:45:51;;;;;;;26.27;17.58;;;;;;;-1.66;100.00;99737.56;5012004;28;20685;-45
2022/11/22 04:48:17;;;;;;;24.15;18.40;;;;;;;-1.67;100.00;99725.31;5011393;28;20264;-44
2022/11/22 04:53:27;;;;;;;25.98;19.08;;;;;;;-1.67;100.00;99731.44;5012023;28;20181;-43
2022/11/22 04:55:53;;;;;;;26.05;18.13;;;;;;;-1.63;100.00;99737.53;5011358;28;20164;-42
2022/11/22 04:58:19;;;;;;;24.77;18.30;;;;;;;-1.60;100.00;99737.50;5011916;28;20300;-43
2022/11/22 05:00:45;;;;;;;24.50;17.98;;;;;;;-1.60;100.00;99748.00;5011908;28;20295;-42
2022/11/22 05:03:11;;;;;;;22.02;16.77;;;;;;;-1.58;100.00;99730.50;5011831;28;20181;-43
2022/11/22 05:05:38;;;;;;;23.10;17.63;;;;;;;-1.53;100.00;99733.97;5011589;28;20192;-42
2022/11/22 05:08:05;;;;;;;25.02;18.23;;;;;;;-1.56;100.00;99728.72;5011659;28;20219;-44
2022/11/22 05:10:55;;;;;;;25.95;18.13;;;;;;;-1.55;100.00;99719.09;5010861;28;20215;-41
2022/11/22 05:13:19;;;;;;;23.90;18.20;;;;;;;-1.56;100.00;99727.88;5010149;28;20211;-43
2022/11/22 05:15:45;;;;;;;23.15;17.00;;;;;;;-1.52;100.00;99735.72;5011452;28;20169;-43
2022/11/22 05:18:11;;;;;;;26.55;18.30;;;;;;;-1.50;100.00;99743.59;5010399;28;20204;-42
2022/11/22 05:20:36;;;;;;;21.45;16.90;;;;;;;-1.51;100.00;99739.19;5011679;28;20172;-41
2022/11/22 05:25:46;;;;;;;23.23;16.80;;;;;;;-1.46;100.00;99756.69;5009967;28;20367;-47
2022/11/22 05:28:11;;;;;;;24.05;17.13;;;;;;;-1.45;100.00;99747.03;5011105;28;20200;-45
2022/11/22 05:30:40;;;;;;;23.35;16.90;;;;;;;-1.46;100.00;99753.19;5010992;28;20301;-46
2022/11/22 05:33:06;;;;;;;23.23;17.63;;;;;;;-1.44;100.00;99746.19;5010427;28;20186;-46
2022/11/22 05:35:32;;;;;;;25.75;17.55;;;;;;;-1.44;100.00;99738.31;5010189;28;20665;-46
2022/11/22 05:37:58;;;;;;;23.60;17.15;;;;;;;-1.41;100.00;99735.63;5009648;28;20241;-46
2022/11/22 05:40:25;;;;;;;24.20;17.90;;;;;;;-1.39;100.00;99738.25;5010637;28;20181;-46
2022/11/22 05:42:51;;;;;;;24.27;17.65;;;;;;;-1.39;100.00;99735.63;4993196;28;20248;-48
2022/11/22 05:45:17;;;;;;;24.98;17.75;;;;;;;-1.36;100.00;99736.47;5009968;28;20196;-46
2022/11/22 05:47:43;;;;;;;23.90;18.45;;;;;;;-1.31;100.00;99741.72;5006172;28;20212;-45
2022/11/22 05:50:09;;;;;;;24.60;17.55;;;;;;;-1.26;100.00;99738.16;5010687;28;20239;-46
2022/11/22 05:52:35;;;;;;;25.05;17.95;;;;;;;-1.24;100.00;99740.78;5010834;28;20181;-46
2022/11/22 05:55:01;;;;;;;25.70;17.45;;;;;;;-1.24;100.00;99740.78;5010123;28;20609;-47
2022/11/22 05:57:27;;;;;;;23.40;17.80;;;;;;;-1.13;100.00;99753.84;5010333;28;20250;-46
2022/11/22 05:59:52;;;;;;;25.90;18.45;;;;;;;-1.15;100.00;99747.72;5010568;28;20653;-44
2022/11/22 06:02:18;;;;;;;27.13;17.98;;;;;;;-1.12;100.00;99756.44;5009708;28;20207;-45
2022/11/22 06:04:43;;;;;;;25.55;17.90;;;;;;;-1.08;100.00;99746.78;5010484;28;20220;-46
2022/11/22 06:07:09;;;;;;;24.52;16.88;;;;;;;-1.05;100.00;99730.97;5010653;28;20258;-43
2022/11/22 06:09:35;;;;;;;22.50;17.30;;;;;;;-1.02;100.00;99757.25;5008956;28;20413;-44
2022/11/22 06:12:00;;;;;;;23.13;17.50;;;;;;;-0.98;100.00;99743.19;5010855;28;20221;-44
2022/11/22 06:14:26;;;;;;;25.70;17.75;;;;;;;-0.97;100.00;99744.06;5002909;28;20267;-43
2022/11/22 06:16:51;;;;;;;23.00;16.83;;;;;;;-0.93;100.00;99757.16;5010005;28;20589;-48
2022/11/22 06:19:17;;;;;;;22.92;17.45;;;;;;;-0.88;100.00;99743.97;5008354;28;20196;-45
2022/11/22 06:21:42;;;;;;;24.20;17.45;;;;;;;-0.83;100.00;99739.56;5008395;28;20268;-44
2022/11/22 06:24:08;;;;;;;26.50;18.02;;;;;;;-0.80;100.00;99749.16;5010194;28;20195;-48
2022/11/22 06:26:34;;;;;;;23.33;17.83;;;;;;;-0.76;100.00;99749.13;5009776;28;20623;-47
2022/11/22 06:29:00;;;;;;;25.02;17.50;;;;;;;-0.75;100.00;99749.97;5009838;28;20264;-44
2022/11/22 06:31:27;;;;;;;24.90;18.33;;;;;;;-0.72;100.00;99744.69;5009879;28;20195;-45
2022/11/22 06:33:54;;;;;;;22.75;17.30;;;;;;;-0.69;100.00;99736.78;5009891;28;20180;-48
2022/11/22 06:36:22;;;;;;;25.50;17.17;;;;;;;-0.67;100.00;99737.63;5009286;28;20260;-43
2022/11/22 06:38:49;;;;;;;22.45;17.25;;;;;;;-0.67;100.00;99741.13;5010007;28;20220;-44
2022/11/22 06:41:20;;;;;;;21.65;16.67;;;;;;;-0.59;100.00;99729.66;4992244;28;20287;-43
2022/11/22 06:43:47;;;;;;;22.48;17.83;;;;;;;-0.57;100.00;99744.53;5009909;28;20641;-44
2022/11/22 06:46:14;;;;;;;24.48;17.67;;;;;;;-0.61;100.00;99742.84;5009354;28;20208;-45
2022/11/22 06:48:41;;;;;;;23.35;16.98;;;;;;;-0.63;100.00;99740.22;5009893;28;20192;-45
2022/11/22 06:51:14;;;;;;;25.52;18.27;;;;;;;-0.55;100.00;99745.38;5009857;28;20278;-45
2022/11/22 06:53:40;;;;;;;23.73;17.38;;;;;;;-0.52;100.00;99739.25;5009764;28;20177;-44
2022/11/22 06:56:35;;;;;;;22.05;16.60;;;;;;;-0.55;100.00;99749.78;5009543;28;20256;-44
2022/11/22 06:59:03;;;;;;;24.63;18.52;;;;;;;-0.53;100.00;99751.50;5006099;28;20278;-42
2022/11/22 07:01:30;;;;;;;24.75;19.02;;;;;;;-0.53;100.00;99748.00;4994572;28;20215;-45
2022/11/22 07:03:57;;;;;;;24.30;18.58;;;;;;;-0.51;100.00;99741.84;5009436;28;20195;-44
2022/11/22 07:06:25;;;;;;;22.88;17.50;;;;;;;-0.51;100.00;99736.56;5009427;28;20212;-44
2022/11/22 07:08:50;;;;;;;23.48;17.27;;;;;;;-0.51;100.00;99747.09;5006197;28;20204;-44
2022/11/22 07:11:19;;;;;;;21.83;17.42;;;;;;;-0.48;100.00;99747.06;5008946;28;20263;-46
2022/11/22 07:13:45;;;;;;;24.50;16.77;;;;;;;-0.50;100.00;99735.69;5008710;28;20303;-46
2022/11/22 07:16:13;;;;;;;25.25;17.90;;;;;;;-0.47;100.00;99740.91;5006492;28;20201;-46
2022/11/22 07:18:39;;;;;;;24.92;18.92;;;;;;;-0.48;100.00;99733.03;5005835;28;20579;-44
2022/11/22 07:21:07;;;;;;;24.45;18.50;;;;;;;-0.45;100.00;99733.00;5002856;28;20200;-46
2022/11/22 07:23:32;;;;;;;25.83;18.40;;;;;;;-0.40;100.00;99743.47;5005948;28;20188;-45
2022/11/22 07:25:58;;;;;;;24.95;19.17;;;;;;;-0.43;100.00;99747.03;5009095;28;20254;-41
2022/11/22 07:28:24;;;;;;;24.42;18.58;;;;;;;-0.44;100.00;99730.38;5009163;28;20251;-44
2022/11/22 07:30:50;;;;;;;25.13;18.65;;;;;;;-0.42;100.00;99747.03;5007948;28;20226;-44
2022/11/22 07:33:16;;;;;;;26.02;18.63;;;;;;;-0.41;100.00;99747.88;5009408;28;20180;-43
2022/11/22 07:35:42;;;;;;;24.08;18.52;;;;;;;-0.36;100.00;99748.69;4991406;28;20384;-43
2022/11/22 07:38:08;;;;;;;23.80;17.77;;;;;;;-0.34;100.00;99752.19;4999133;28;20216;-42
2022/11/22 07:40:34;;;;;;;24.67;18.90;;;;;;;-0.34;100.00;99751.31;5008168;28;20558;-43
2022/11/22 07:43:00;;;;;;;24.27;19.08;;;;;;;-0.34;100.00;99752.19;5009109;28;20244;-45
2022/11/22 07:45:26;;;;;;;26.15;18.20;;;;;;;-0.30;100.00;99761.78;5009091;28;20645;-42
2022/11/22 07:47:51;;;;;;;28.00;19.63;;;;;;;-0.29;100.00;99757.38;5010021;28;20227;-43
2022/11/22 07:50:17;;;;;;;24.52;18.02;;;;;;;-0.29;100.00;99773.19;5012239;28;20202;-40
2022/11/22 07:52:42;;;;;;;24.42;17.88;;;;;;;-0.27;100.00;99768.78;4993778;28;20750;-43
2022/11/22 07:55:08;;;;;;;25.05;17.67;;;;;;;-0.26;100.00;99760.00;5010023;28;20203;-41
2022/11/22 07:57:34;;;;;;;24.92;19.60;;;;;;;-0.23;100.00;99754.69;5012629;28;20263;-43
2022/11/22 08:00:00;;;;;;;23.80;18.42;;;;;;;-0.25;100.00;99759.97;5008910;28;20185;-42
2022/11/22 08:02:26;;;;;;;23.60;18.08;;;;;;;-0.23;100.00;99752.94;5012925;28;20230;-43
2022/11/22 08:04:52;;;;;;;25.35;19.10;;;;;;;-0.22;100.00;99759.94;5012757;28;20208;-45
2022/11/22 08:07:18;;;;;;;23.92;18.23;;;;;;;-0.21;100.00;99747.66;4995094;28;20217;-46
2022/11/22 08:09:44;;;;;;;26.30;19.15;;;;;;;-0.18;100.00;99752.00;5012932;28;20184;-44
2022/11/22 08:12:09;;;;;;;26.40;18.58;;;;;;;-0.22;100.00;99748.53;5012424;28;20247;-44
2022/11/22 08:14:35;;;;;;;26.27;19.27;;;;;;;-0.21;100.00;99748.50;5012709;28;20555;-44
2022/11/22 08:17:01;;;;;;;26.75;18.58;;;;;;;-0.19;100.00;99743.25;5012369;28;20259;-46
2022/11/22 08:19:26;;;;;;;24.23;17.40;;;;;;;-0.10;100.00;99737.84;5012707;28;20287;-47
2022/11/22 08:21:52;;;;;;;23.65;17.63;;;;;;;-0.13;100.00;99732.66;5012689;28;20192;-49
2022/11/22 08:24:17;;;;;;;22.98;18.00;;;;;;;-0.10;100.00;99734.34;5008768;28;20671;-43
2022/11/22 08:26:43;;;;;;;25.58;18.38;;;;;;;-0.11;100.00;99738.75;4994158;28;20240;-43
2022/11/22 08:29:11;;;;;;;25.90;18.33;;;;;;;-0.11;100.00;99722.97;5012100;28;20272;-42
2022/11/22 08:31:37;;;;;;;27.17;18.98;;;;;;;-0.12;100.00;99731.75;5011950;28;20181;-44
2022/11/22 08:34:03;;;;;;;27.80;19.48;;;;;;;-0.10;100.00;99734.34;5012026;28;20740;-43
2022/11/22 08:36:29;;;;;;;26.05;17.90;;;;;;;-0.12;100.00;99746.66;5012146;28;20195;-42
2022/11/22 08:38:54;;;;;;;24.88;18.52;;;;;;;-0.09;100.00;99749.25;5011833;28;20189;-43
2022/11/22 08:41:20;;;;;;;26.40;19.05;;;;;;;-0.05;100.00;99753.59;5011959;28;20657;-44
2022/11/22 08:43:49;;;;;;;24.45;17.75;;;;;;;-0.08;100.00;99738.72;5011766;28;20271;-43
2022/11/22 08:46:15;;;;;;;26.13;19.48;;;;;;;-0.07;100.00;99744.84;5011640;28;20254;-44
2022/11/22 08:48:40;;;;;;;26.10;18.20;;;;;;;-0.03;100.00;99739.50;5011704;28;20177;-42
2022/11/22 08:51:08;;;;;;;24.20;18.88;;;;;;;-0.06;100.00;99734.31;5011572;28;20187;-41
2022/11/22 08:53:36;;;;;;;26.05;18.67;;;;;;;-0.01;100.00;99756.16;5011558;28;20255;-42
2022/11/22 08:56:04;;;;;;;26.90;18.33;;;;;;;-0.04;100.00;99752.72;5012063;28;20176;-42
2022/11/22 08:58:30;;;;;;;23.73;18.48;;;;;;;-0.04;100.00;99755.34;5011215;28;20294;-45
2022/11/22 09:01:01;;;;;;;22.95;17.90;;;;;;;-0.02;100.00;99759.72;5011062;28;20207;-48
2022/11/22 09:03:27;;;;;;;24.67;17.40;;;;;;;0.04;100.00;99749.97;5011341;28;20641;-47
2022/11/22 09:05:58;;;;;;;25.58;18.65;;;;;;;0.02;100.00;99759.66;5011408;28;20279;-48
2022/11/22 09:08:24;;;;;;;22.65;17.85;;;;;;;0.10;100.00;99756.03;5011727;28;20596;-49
2022/11/22 09:10:49;;;;;;;23.95;17.65;;;;;;;0.08;100.00;99764.84;5010349;28;20173;-45
2022/11/22 09:13:15;;;;;;;24.25;17.73;;;;;;;0.04;100.00;99769.28;5011544;28;20191;-44
2022/11/22 09:15:40;;;;;;;24.10;18.08;;;;;;;0.08;100.00;99767.47;5010870;28;20168;-46
2022/11/22 09:18:06;;;;;;;22.35;18.58;;;;;;;0.04;100.00;99768.41;5011392;28;20695;-43
2022/11/22 09:20:31;;;;;;;24.50;18.77;;;;;;;0.04;100.00;99773.66;4993763;28;20261;-43
2022/11/22 09:22:59;;;;;;;23.98;18.77;;;;;;;0.05;100.00;99771.03;5011006;28;20578;-45
2022/11/22 09:25:24;;;;;;;25.10;19.80;;;;;;;0.03;100.00;99774.56;5011124;28;20193;-50
2022/11/22 09:27:50;;;;;;;29.13;20.98;;;;;;;0.04;100.00;99779.81;5010123;28;20266;-43
2022/11/22 09:30:16;;;;;;;27.67;19.05;;;;;;;0.14;100.00;99776.19;5011767;28;20259;-43
2022/11/22 09:32:43;;;;;;;25.42;19.17;;;;;;;0.08;100.00;99770.97;5010672;28;20185;-44
2022/11/22 09:35:08;;;;;;;26.95;20.65;;;;;;;0.10;100.00;99760.44;5010336;28;20180;-47
2022/11/22 09:37:34;;;;;;;26.83;20.00;;;;;;;0.12;100.00;99763.91;5010562;28;20205;-46
2022/11/22 09:39:59;;;;;;;24.15;19.52;;;;;;;0.07;100.00;99778.91;5010559;28;20252;-47
2022/11/22 09:42:52;;;;;;;26.83;20.83;;;;;;;0.05;100.00;99765.75;4992668;28;20251;-47
2022/11/22 09:45:34;;;;;;;28.08;20.48;;;;;;;0.14;100.00;99784.06;5008976;28;20180;-47
2022/11/22 09:48:11;;;;;;;25.20;19.30;;;;;;;0.04;100.00;99789.47;5010278;28;20227;-46
2022/11/22 09:50:51;;;;;;;29.23;19.38;;;;;;;0.05;100.00;99786.84;5008389;28;20598;-49
2022/11/22 09:53:32;;;;;;;25.65;20.13;;;;;;;0.01;100.00;99784.25;5009867;28;20610;-45
2022/11/22 09:56:02;;;;;;;26.25;21.30;;;;;;;0.03;100.00;99787.75;5005739;28;20240;-46
2022/11/22 09:58:50;;;;;;;28.20;21.30;;;;;;;0.00;100.00;99783.41;5009339;28;20208;-43
2022/11/22 10:01:40;;;;;;;29.25;20.77;;;;;;;0.01;100.00;99784.25;5007374;28;20244;-46
2022/11/22 10:04:54;;;;;;;26.48;20.58;;;;;;;-0.02;100.00;99767.59;5009617;28;20183;-46
2022/11/22 10:07:28;;;;;;;29.20;21.23;;;;;;;0.03;100.00;99774.56;4929451;29;20207;-43
2022/11/22 10:10:17;;;;;;;30.25;20.88;;;;;;;-0.01;100.00;99771.09;4985621;28;20206;-46
2022/11/22 10:13:03;;;;;;;31.88;21.52;;;;;;;0.02;100.00;99778.09;5005459;28;20625;-44
2022/11/22 10:15:58;;;;;;;33.13;21.92;;;;;;;0.01;100.00;99773.72;5008433;28;20193;-46
2022/11/22 10:18:46;;;;;;;30.42;21.92;;;;;;;0.04;100.00;99779.81;4974814;28;20224;-44
2022/11/22 10:21:13;;;;;;;28.52;20.77;;;;;;;0.05;100.00;99772.81;5007906;28;20181;-45
2022/11/22 10:23:42;;;;;;;31.15;22.20;;;;;;;0.06;100.00;99767.50;5009927;28;20397;-47
2022/11/22 10:26:23;;;;;;;29.35;21.13;;;;;;;0.09;100.00;99767.47;5008859;28;20279;-47
2022/11/22 10:29:03;;;;;;;25.90;19.73;;;;;;;0.10;100.00;99774.47;4991210;28;20554;-46
2022/11/22 10:31:38;;;;;;;28.25;20.60;;;;;;;0.09;100.00;99774.47;5007734;28;20179;-47
2022/11/22 10:34:18;;;;;;;31.38;21.92;;;;;;;0.08;100.00;99770.97;5009497;28;20188;-45
2022/11/22 10:37:26;;;;;;;29.13;22.45;;;;;;;0.10;100.00;99769.19;5008110;28;20570;-45
2022/11/22 10:40:04;;;;;;;28.52;20.77;;;;;;;0.12;100.00;99774.47;4998848;28;20207;-45
2022/11/22 10:42:29;;;;;;;30.38;21.45;;;;;;;0.13;100.00;99784.09;5007251;28;20192;-45
2022/11/22 10:45:21;;;;;;;28.58;20.75;;;;;;;0.14;100.00;99791.13;5009279;28;20748;-43
2022/11/22 10:47:55;;;;;;;27.27;20.17;;;;;;;0.15;100.00;99779.66;4989233;28;20270;-44
2022/11/22 10:51:13;;;;;;;27.02;20.15;;;;;;;0.17;100.00;99788.44;5009423;28;20216;-45
2022/11/22 10:54:17;;;;;;;29.52;20.73;;;;;;;0.13;100.00;99790.25;4965589;28;20208;-44
2022/11/22 10:56:54;;;;;;;25.80;19.77;;;;;;;0.12;100.00;99795.53;5008099;28;20721;-44
2022/11/22 10:59:31;;;;;;;28.95;20.95;;;;;;;0.12;100.00;99791.13;5009266;28;20685;-45
2022/11/22 11:02:19;;;;;;;27.45;20.52;;;;;;;0.13;100.00;99789.34;5009520;28;20196;-45
2022/11/22 11:04:45;;;;;;;28.10;21.10;;;;;;;0.17;100.00;99797.19;5009343;28;20685;-44
2022/11/22 11:07:19;;;;;;;32.28;21.98;;;;;;;0.15;100.00;99792.84;4991560;28;20220;-46
2022/11/22 11:09:49;;;;;;;25.27;19.33;;;;;;;0.18;100.00;99792.81;5006979;28;20196;-48
2022/11/22 11:12:23;;;;;;;27.60;20.73;;;;;;;0.19;100.00;99786.66;5006493;28;20314;-44
2022/11/22 11:14:55;;;;;;;26.55;19.85;;;;;;;0.18;100.00;99788.41;5008046;28;20519;-45
2022/11/22 11:17:30;;;;;;;32.38;22.05;;;;;;;0.21;100.00;99787.50;5009282;28;20662;-44
2022/11/22 11:20:00;;;;;;;29.45;20.92;;;;;;;0.21;100.00;99792.78;5009562;28;20188;-46
2022/11/22 11:22:33;;;;;;;27.58;20.20;;;;;;;0.23;100.00;99780.44;5010149;28;20544;-45
2022/11/22 11:25:39;;;;;;;33.20;22.08;;;;;;;0.25;100.00;99804.16;5012074;28;20282;-46
2022/11/22 11:28:10;;;;;;;30.10;21.63;;;;;;;0.27;100.00;99789.19;5012304;28;20287;-45
2022/11/22 11:30:39;;;;;;;29.30;20.58;;;;;;;0.28;100.00;99798.81;5013303;28;20176;-47
2022/11/22 11:33:18;;;;;;;31.27;21.92;;;;;;;0.27;100.00;99789.19;5013073;28;20184;-43
2022/11/22 11:35:45;;;;;;;29.13;21.02;;;;;;;0.27;100.00;99779.53;5011820;28;20184;-44